createdAt,value
2022-12-31T00:01:41.759Z,0.00
2022-12-31T00:04:08.930Z,0.00
2022-12-31T00:06:36.313Z,0.00
2022-12-31T00:09:06.675Z,0.15
2022-12-31T00:11:39.766Z,0.00
2022-12-31T00:14:19.277Z,0.10
2022-12-31T00:16:46.347Z,0.13
2022-12-31T00:19:16.080Z,0.10
2022-12-31T00:21:44.006Z,0.00
2022-12-31T00:24:11.165Z,0.10
2022-12-31T00:26:38.210Z,0.00
2022-12-31T00:29:05.457Z,0.50
2022-12-31T00:31:34.207Z,0.00
2022-12-31T00:34:01.643Z,0.63
2022-12-31T00:36:37.081Z,0.10
2022-12-31T00:39:07.421Z,0.10
2022-12-31T00:41:35.539Z,0.30
2022-12-31T00:44:03.765Z,0.00
2022-12-31T00:46:31.993Z,0.10
2022-12-31T00:48:59.220Z,0.20
2022-12-31T00:51:27.793Z,0.20
2022-12-31T00:53:55.864Z,0.10
2022-12-31T00:56:24.849Z,0.00
2022-12-31T00:58:52.014Z,0.20
2022-12-31T01:01:30.065Z,0.20
2022-12-31T01:04:08.569Z,0.10
2022-12-31T01:06:35.808Z,0.35
2022-12-31T01:09:04.945Z,0.10
2022-12-31T01:11:32.041Z,0.10
2022-12-31T01:14:01.050Z,0.10
2022-12-31T01:16:30.832Z,1.20
2022-12-31T01:19:02.930Z,0.30
2022-12-31T01:21:30.072Z,0.15
2022-12-31T01:23:58.506Z,0.10
2022-12-31T01:26:57.890Z,0.10
2022-12-31T01:29:26.401Z,0.25
2022-12-31T01:31:53.612Z,0.15
2022-12-31T01:34:20.768Z,0.20
2022-12-31T01:36:47.931Z,0.30
2022-12-31T01:39:15.269Z,0.10
2022-12-31T01:41:43.976Z,0.00
2022-12-31T01:44:26.274Z,0.10
2022-12-31T01:47:00.933Z,0.10
2022-12-31T01:49:59.288Z,0.00
2022-12-31T01:52:34.518Z,0.10
2022-12-31T01:55:25.554Z,0.17
2022-12-31T01:57:54.860Z,0.17
2022-12-31T02:00:22.330Z,0.30
2022-12-31T02:03:18.560Z,0.30
2022-12-31T02:06:05.183Z,0.17
2022-12-31T02:08:38.374Z,0.20
2022-12-31T02:11:25.320Z,0.20
2022-12-31T02:13:58.180Z,0.55
2022-12-31T02:16:52.572Z,0.00
2022-12-31T02:19:44.782Z,0.15
2022-12-31T02:22:42.713Z,0.10
2022-12-31T02:25:18.997Z,0.10
2022-12-31T02:28:10.610Z,0.00
2022-12-31T02:30:37.618Z,0.00
2022-12-31T02:33:14.132Z,0.10
2022-12-31T02:35:52.251Z,0.00
2022-12-31T02:38:28.170Z,0.00
2022-12-31T02:40:56.086Z,0.00
2022-12-31T02:43:24.197Z,0.00
2022-12-31T02:46:08.601Z,0.00
2022-12-31T02:48:55.977Z,0.00
2022-12-31T02:51:44.416Z,0.00
2022-12-31T02:54:48.415Z,0.00
2022-12-31T02:57:38.025Z,0.00
2022-12-31T03:00:27.088Z,0.00
2022-12-31T03:02:58.456Z,0.00
2022-12-31T03:05:29.763Z,0.00
2022-12-31T03:07:59.219Z,0.77
2022-12-31T03:10:27.786Z,0.00
2022-12-31T03:13:15.865Z,0.00
2022-12-31T03:15:52.327Z,0.00
2022-12-31T03:18:41.337Z,0.00
2022-12-31T03:21:33.855Z,0.00
2022-12-31T03:27:24.252Z,0.00
2022-12-31T03:29:52.144Z,0.00
2022-12-31T03:32:19.804Z,0.00
2022-12-31T03:34:48.198Z,0.00
2022-12-31T03:37:17.206Z,0.00
2022-12-31T03:39:46.629Z,0.00
2022-12-31T03:42:13.823Z,0.00
2022-12-31T03:45:00.379Z,0.00
2022-12-31T03:50:37.618Z,0.00
2022-12-31T03:53:05.972Z,0.00
2022-12-31T03:55:33.188Z,0.00
2022-12-31T03:58:00.406Z,0.00
2022-12-31T04:00:29.943Z,0.00
2022-12-31T04:03:00.212Z,0.00
2022-12-31T04:05:37.382Z,0.00
2022-12-31T04:08:08.004Z,0.00
2022-12-31T04:10:38.176Z,0.00
2022-12-31T04:13:12.855Z,0.00
2022-12-31T04:15:53.929Z,0.00
2022-12-31T04:18:26.313Z,0.00
2022-12-31T04:21:05.435Z,0.00
2022-12-31T04:23:35.272Z,0.00
2022-12-31T04:26:02.344Z,0.00
2022-12-31T04:28:33.746Z,0.00
2022-12-31T04:31:01.162Z,0.00
2022-12-31T04:33:31.239Z,0.00
2022-12-31T04:36:08.162Z,0.00
2022-12-31T04:38:37.806Z,0.00
2022-12-31T04:41:18.654Z,0.00
2022-12-31T04:44:01.363Z,0.00
2022-12-31T04:46:34.414Z,0.00
2022-12-31T04:49:03.391Z,0.00
2022-12-31T04:51:31.200Z,0.00
2022-12-31T04:53:58.604Z,0.10
2022-12-31T04:56:26.295Z,0.00
2022-12-31T04:58:53.387Z,0.00
2022-12-31T05:01:20.506Z,0.00
2022-12-31T05:03:47.698Z,0.00
2022-12-31T05:06:16.758Z,0.10
2022-12-31T05:08:43.833Z,0.00
2022-12-31T05:11:13.442Z,0.00
2022-12-31T05:13:40.908Z,0.30
2022-12-31T05:16:08.156Z,0.20
2022-12-31T05:18:35.207Z,0.10
2022-12-31T05:21:02.238Z,0.20
2022-12-31T05:23:29.247Z,0.05
2022-12-31T05:25:56.431Z,0.15
2022-12-31T05:28:23.558Z,0.20
2022-12-31T05:30:50.886Z,0.30
2022-12-31T05:33:18.579Z,0.20
2022-12-31T05:35:45.812Z,0.05
2022-12-31T05:38:12.766Z,0.08
2022-12-31T05:40:39.793Z,0.17
2022-12-31T05:43:06.803Z,0.10
2022-12-31T05:45:33.932Z,0.17
2022-12-31T05:48:00.941Z,0.15
2022-12-31T05:50:27.988Z,0.00
2022-12-31T05:52:56.257Z,0.35
2022-12-31T05:55:23.545Z,0.08
2022-12-31T05:57:50.583Z,0.13
2022-12-31T06:00:17.987Z,0.08
2022-12-31T06:02:45.565Z,0.10
2022-12-31T06:05:12.922Z,0.10
2022-12-31T06:07:39.983Z,0.10
2022-12-31T06:10:07.457Z,0.00
2022-12-31T06:12:34.469Z,0.13
2022-12-31T06:15:01.558Z,0.10
2022-12-31T06:17:32.838Z,0.10
2022-12-31T06:19:59.923Z,0.17
2022-12-31T06:22:27.038Z,0.40
2022-12-31T06:24:54.380Z,0.20
2022-12-31T06:27:22.708Z,0.20
2022-12-31T06:29:51.115Z,0.20
2022-12-31T06:32:18.225Z,0.10
2022-12-31T06:34:45.970Z,0.28
2022-12-31T06:37:13.121Z,0.13
2022-12-31T06:39:40.103Z,0.40
2022-12-31T06:42:07.027Z,1.20
2022-12-31T06:44:33.997Z,0.77
2022-12-31T06:47:01.255Z,0.15
2022-12-31T06:50:47.242Z,0.08
2022-12-31T06:53:14.451Z,0.30
2022-12-31T06:55:47.587Z,0.73
2022-12-31T06:58:19.864Z,0.32
2022-12-31T07:00:57.294Z,0.28
2022-12-31T07:03:32.845Z,0.20
2022-12-31T07:06:34.025Z,0.10
2022-12-31T07:09:08.120Z,0.40
2022-12-31T07:11:47.985Z,0.10
2022-12-31T07:14:18.168Z,0.30
2022-12-31T07:17:12.423Z,0.10
2022-12-31T07:19:45.220Z,0.20
2022-12-31T07:22:14.681Z,0.20
2022-12-31T07:24:45.510Z,0.10
2022-12-31T07:27:24.392Z,0.00
2022-12-31T07:30:13.931Z,0.20
2022-12-31T07:32:43.939Z,0.00
2022-12-31T07:35:31.290Z,0.10
2022-12-31T07:38:26.076Z,0.10
2022-12-31T07:41:15.086Z,0.00
2022-12-31T07:44:06.754Z,0.10
2022-12-31T07:47:29.285Z,0.20
2022-12-31T07:49:56.839Z,0.75
2022-12-31T07:52:25.013Z,0.10
2022-12-31T07:54:52.187Z,0.68
2022-12-31T07:57:19.927Z,0.40
2022-12-31T08:00:05.705Z,0.38
2022-12-31T08:03:15.826Z,1.00
2022-12-31T08:05:49.157Z,0.10
2022-12-31T08:08:23.469Z,0.52
2022-12-31T08:11:22.116Z,0.20
2022-12-31T08:13:50.647Z,0.68
2022-12-31T08:16:18.104Z,0.10
2022-12-31T08:18:45.431Z,0.25
2022-12-31T08:21:29.527Z,0.10
2022-12-31T08:24:03.672Z,0.20
2022-12-31T08:26:34.977Z,0.43
2022-12-31T08:29:04.495Z,1.48
2022-12-31T08:32:04.715Z,0.20
2022-12-31T08:34:47.039Z,0.22
2022-12-31T08:37:19.270Z,0.20
2022-12-31T08:39:59.134Z,0.60
2022-12-31T08:42:27.878Z,0.35
2022-12-31T08:45:03.445Z,1.70
2022-12-31T08:47:46.690Z,0.28
2022-12-31T08:50:15.498Z,0.30
2022-12-31T08:52:43.307Z,0.50
2022-12-31T08:55:15.645Z,0.20
2022-12-31T08:57:51.826Z,0.50
2022-12-31T09:00:19.882Z,0.50
2022-12-31T09:02:55.929Z,0.10
2022-12-31T09:05:26.528Z,0.60
2022-12-31T09:08:11.752Z,0.10
2022-12-31T09:10:45.339Z,0.10
2022-12-31T09:13:26.804Z,0.35
2022-12-31T09:16:21.366Z,0.93
2022-12-31T09:18:48.443Z,0.30
2022-12-31T09:21:15.714Z,0.35
2022-12-31T09:23:43.489Z,0.28
2022-12-31T09:26:28.651Z,0.25
2022-12-31T09:29:04.595Z,0.10
2022-12-31T09:31:46.020Z,0.90
2022-12-31T09:34:25.342Z,0.52
2022-12-31T09:36:57.762Z,0.30
2022-12-31T09:39:43.918Z,0.38
2022-12-31T09:42:29.712Z,0.63
2022-12-31T09:45:02.020Z,1.13
2022-12-31T09:47:38.219Z,0.30
2022-12-31T09:52:58.271Z,0.40
2022-12-31T09:55:54.513Z,0.80
2022-12-31T09:58:42.797Z,0.22
2022-12-31T10:01:31.130Z,0.15
2022-12-31T10:04:07.610Z,0.45
2022-12-31T10:09:23.586Z,0.20
2022-12-31T10:12:18.952Z,0.20
2022-12-31T10:14:48.915Z,0.20
2022-12-31T10:17:37.570Z,0.10
2022-12-31T10:20:38.830Z,0.22
2022-12-31T10:23:14.899Z,0.40
2022-12-31T10:25:51.135Z,0.77
2022-12-31T10:28:49.185Z,0.77
2022-12-31T10:31:48.611Z,0.15
2022-12-31T10:34:22.435Z,0.03
2022-12-31T10:37:02.921Z,0.28
2022-12-31T10:39:55.109Z,0.20
2022-12-31T10:42:24.907Z,0.08
2022-12-31T10:45:22.989Z,0.10
2022-12-31T10:48:17.854Z,0.20
2022-12-31T10:51:03.835Z,0.00
2022-12-31T10:53:48.891Z,0.00
2022-12-31T10:56:18.857Z,0.00
2022-12-31T10:59:09.329Z,0.00
2022-12-31T11:01:49.036Z,0.00
2022-12-31T11:04:47.222Z,0.00
2022-12-31T11:07:47.681Z,0.03
2022-12-31T11:10:31.309Z,0.00
2022-12-31T11:13:13.519Z,0.00
2022-12-31T11:16:20.724Z,0.00
2022-12-31T11:19:03.127Z,0.00
2022-12-31T11:22:15.274Z,0.00
2022-12-31T11:24:45.179Z,0.00
2022-12-31T11:27:47.668Z,0.00
2022-12-31T11:30:21.687Z,0.00
2022-12-31T11:33:00.597Z,0.10
2022-12-31T11:36:04.587Z,0.00
2022-12-31T11:38:36.127Z,0.00
2022-12-31T11:41:16.675Z,0.00
2022-12-31T11:43:56.147Z,0.00
2022-12-31T11:46:35.492Z,0.00
2022-12-31T11:49:40.226Z,0.00
2022-12-31T11:52:29.872Z,0.00
2022-12-31T11:55:02.782Z,0.00
2022-12-31T11:57:37.422Z,0.00
2022-12-31T12:00:14.742Z,0.00
2022-12-31T12:02:45.774Z,0.00
2022-12-31T12:05:15.075Z,0.00
2022-12-31T12:07:42.055Z,0.00
2022-12-31T12:10:42.764Z,0.00
2022-12-31T12:13:12.707Z,0.13
2022-12-31T12:15:39.629Z,0.00
2022-12-31T12:18:24.843Z,0.00
2022-12-31T12:20:51.734Z,0.10
2022-12-31T12:23:25.604Z,0.10
2022-12-31T12:25:52.600Z,0.10
2022-12-31T12:28:25.445Z,0.88
2022-12-31T12:31:04.909Z,0.08
2022-12-31T12:33:43.183Z,0.38
2022-12-31T12:36:11.940Z,0.30
2022-12-31T12:38:39.134Z,0.10
2022-12-31T12:41:11.101Z,0.85
2022-12-31T12:43:38.403Z,0.10
2022-12-31T12:46:07.347Z,0.50
2022-12-31T12:48:44.012Z,0.20
2022-12-31T12:51:23.669Z,0.25
2022-12-31T12:54:09.254Z,0.30
2022-12-31T12:56:50.691Z,0.10
2022-12-31T12:59:43.855Z,0.43
2022-12-31T13:02:41.713Z,0.15
2022-12-31T13:05:37.887Z,0.30
2022-12-31T13:08:25.675Z,0.32
2022-12-31T13:11:27.575Z,0.20
2022-12-31T13:14:18.826Z,0.30
2022-12-31T13:16:58.057Z,0.30
2022-12-31T13:19:36.765Z,0.40
2022-12-31T13:22:25.117Z,0.10
2022-12-31T13:25:07.989Z,0.30
2022-12-31T13:27:42.503Z,0.30
2022-12-31T13:30:20.660Z,0.30
2022-12-31T13:32:53.117Z,0.20
2022-12-31T13:35:42.693Z,0.63
2022-12-31T13:38:22.871Z,0.88
2022-12-31T13:41:20.465Z,0.50
2022-12-31T13:44:11.649Z,0.55
2022-12-31T13:46:39.939Z,0.57
2022-12-31T13:49:18.681Z,0.10
2022-12-31T13:51:47.276Z,0.50
2022-12-31T13:54:26.960Z,0.35
2022-12-31T13:56:56.483Z,0.60
2022-12-31T13:59:30.429Z,0.38
2022-12-31T14:02:25.670Z,0.60
2022-12-31T14:04:56.414Z,0.47
2022-12-31T14:07:32.659Z,0.17
2022-12-31T14:10:14.776Z,0.20
2022-12-31T14:12:47.708Z,0.40
2022-12-31T14:15:46.945Z,0.30
2022-12-31T14:18:19.896Z,0.55
2022-12-31T14:20:49.710Z,0.30
2022-12-31T14:23:21.274Z,0.60
2022-12-31T14:25:55.098Z,0.82
2022-12-31T14:28:26.446Z,0.20
2022-12-31T14:30:56.853Z,0.25
2022-12-31T14:33:44.915Z,0.35
2022-12-31T14:36:27.085Z,0.45
2022-12-31T14:39:27.886Z,0.60
2022-12-31T14:45:05.993Z,0.47
2022-12-31T14:48:08.135Z,0.35
2022-12-31T14:50:35.587Z,0.40
2022-12-31T14:53:03.576Z,1.45
2022-12-31T14:55:36.378Z,1.20
2022-12-31T14:58:39.908Z,1.13
2022-12-31T15:01:19.412Z,0.90
2022-12-31T15:03:46.616Z,1.60
2022-12-31T15:06:47.766Z,3.10
2022-12-31T15:09:18.223Z,1.05
2022-12-31T15:12:01.210Z,1.08
2022-12-31T15:14:46.466Z,1.42
2022-12-31T15:17:51.719Z,1.20
2022-12-31T15:21:01.330Z,1.48
2022-12-31T15:23:46.861Z,1.05
2022-12-31T15:26:25.421Z,1.47
2022-12-31T15:29:02.547Z,1.80
2022-12-31T15:31:33.111Z,1.80
2022-12-31T15:34:26.080Z,1.58
2022-12-31T15:36:55.216Z,1.50
2022-12-31T15:39:25.772Z,1.63
2022-12-31T15:44:56.942Z,1.40
2022-12-31T15:47:32.163Z,1.15
2022-12-31T15:50:08.433Z,0.80
2022-12-31T15:52:43.398Z,1.67
2022-12-31T15:55:20.983Z,1.35
2022-12-31T15:57:48.277Z,2.53
2022-12-31T16:00:20.565Z,0.85
2022-12-31T16:02:48.648Z,2.22
2022-12-31T16:05:23.664Z,0.75
2022-12-31T16:07:58.702Z,1.33
2022-12-31T16:10:28.284Z,2.22
2022-12-31T16:12:58.640Z,1.75
2022-12-31T16:15:29.072Z,1.73
2022-12-31T16:18:20.823Z,1.35
2022-12-31T16:20:51.801Z,0.90
2022-12-31T16:23:49.920Z,1.42
2022-12-31T16:26:16.934Z,2.17
2022-12-31T16:28:43.942Z,1.35
2022-12-31T16:31:16.114Z,1.17
2022-12-31T16:33:43.343Z,1.58
2022-12-31T16:36:23.491Z,0.95
2022-12-31T16:38:50.575Z,2.33
2022-12-31T16:41:20.906Z,1.20
2022-12-31T16:43:49.317Z,2.78
2022-12-31T16:46:20.713Z,0.68
2022-12-31T16:48:54.203Z,1.27
2022-12-31T16:51:24.381Z,1.00
2022-12-31T16:53:51.951Z,1.58
2022-12-31T16:56:36.561Z,0.98
2022-12-31T16:59:07.990Z,0.80
2022-12-31T17:01:35.740Z,1.38
2022-12-31T17:04:09.165Z,1.25
2022-12-31T17:06:36.200Z,0.95
2022-12-31T17:09:23.089Z,2.03
2022-12-31T17:14:27.807Z,1.42
2022-12-31T17:17:03.955Z,1.75
2022-12-31T17:22:02.427Z,0.65
2022-12-31T17:24:29.617Z,1.25
2022-12-31T17:27:02.650Z,1.00
2022-12-31T17:29:29.677Z,1.25
2022-12-31T17:32:07.345Z,1.50
2022-12-31T17:34:40.094Z,1.73
2022-12-31T17:37:18.459Z,1.52
2022-12-31T17:39:52.810Z,1.15
2022-12-31T17:42:26.421Z,0.80
2022-12-31T17:44:56.327Z,0.85
2022-12-31T17:47:23.525Z,1.38
2022-12-31T17:49:50.713Z,1.20
2022-12-31T17:52:17.715Z,1.65
2022-12-31T17:54:44.711Z,1.15
2022-12-31T17:57:24.180Z,1.40
2022-12-31T17:59:51.412Z,1.20
2022-12-31T18:02:18.464Z,1.17
2022-12-31T18:04:45.986Z,1.17
2022-12-31T18:07:12.982Z,1.30
2022-12-31T18:09:41.169Z,0.65
2022-12-31T18:12:08.207Z,1.08
2022-12-31T18:14:35.124Z,1.15
2022-12-31T18:17:02.215Z,1.02
2022-12-31T18:22:16.430Z,2.20
2022-12-31T18:25:19.378Z,2.45
2022-12-31T18:27:46.671Z,1.50
2022-12-31T18:30:16.381Z,3.25
2022-12-31T18:32:44.094Z,1.35
2022-12-31T18:35:49.032Z,1.08
2022-12-31T18:38:17.538Z,1.63
2022-12-31T18:40:46.890Z,0.80
2022-12-31T18:43:17.976Z,0.60
2022-12-31T18:45:46.156Z,1.25
2022-12-31T18:48:13.537Z,0.68
2022-12-31T18:50:40.898Z,0.80
2022-12-31T18:53:08.270Z,1.40
2022-12-31T18:55:40.301Z,1.23
2022-12-31T18:58:07.977Z,1.00
2022-12-31T19:00:35.336Z,1.17
2022-12-31T19:03:02.791Z,0.88
2022-12-31T19:05:30.750Z,1.30
2022-12-31T19:07:58.972Z,1.65
2022-12-31T19:10:26.524Z,1.13
2022-12-31T19:12:54.047Z,1.65
2022-12-31T19:15:35.114Z,1.58
2022-12-31T19:18:02.774Z,1.20
2022-12-31T19:20:30.229Z,1.33
2022-12-31T19:22:57.563Z,2.75
2022-12-31T19:25:32.490Z,2.28
2022-12-31T19:28:03.143Z,1.65
2022-12-31T19:30:32.119Z,1.55
2022-12-31T19:32:59.835Z,1.27
2022-12-31T19:35:27.094Z,1.65
2022-12-31T19:37:54.750Z,1.70
2022-12-31T19:40:25.626Z,1.08
2022-12-31T19:42:56.150Z,1.25
2022-12-31T19:45:24.914Z,2.75
2022-12-31T19:47:52.434Z,1.45
2022-12-31T19:50:25.216Z,1.70
2022-12-31T19:52:53.868Z,2.00
2022-12-31T19:55:46.344Z,1.02
2022-12-31T19:58:22.495Z,1.35
2022-12-31T20:00:56.902Z,1.73
2022-12-31T20:03:25.842Z,1.15
2022-12-31T20:06:01.010Z,0.88
2022-12-31T20:08:31.756Z,1.55
2022-12-31T20:10:59.079Z,0.93
2022-12-31T20:13:27.151Z,1.42
2022-12-31T20:15:54.519Z,1.20
2022-12-31T20:18:22.993Z,1.08
2022-12-31T20:20:55.569Z,1.15
2022-12-31T20:23:23.442Z,1.73
2022-12-31T20:25:57.937Z,1.30
2022-12-31T20:28:25.269Z,1.13
2022-12-31T20:30:52.368Z,1.05
2022-12-31T20:33:19.761Z,1.35
2022-12-31T20:35:47.137Z,1.00
2022-12-31T20:38:14.186Z,0.52
2022-12-31T20:40:46.738Z,0.55
2022-12-31T20:43:14.679Z,0.40
2022-12-31T20:45:42.074Z,0.57
2022-12-31T20:48:09.290Z,0.85
2022-12-31T20:50:37.376Z,0.93
2022-12-31T20:53:05.061Z,0.40
2022-12-31T20:55:32.585Z,0.73
2022-12-31T20:58:00.629Z,0.73
2022-12-31T21:00:27.697Z,0.70
2022-12-31T21:03:04.944Z,0.60
2022-12-31T21:05:38.174Z,1.23
2022-12-31T21:08:05.470Z,0.75
2022-12-31T21:10:35.737Z,0.60
2022-12-31T21:13:03.029Z,0.70
2022-12-31T21:15:30.352Z,1.23
2022-12-31T21:17:59.203Z,1.00
2022-12-31T21:20:29.263Z,0.52
2022-12-31T21:22:56.267Z,1.00
2022-12-31T21:25:23.200Z,0.85
2022-12-31T21:27:50.244Z,0.60
2022-12-31T21:30:19.318Z,0.65
2022-12-31T21:32:46.845Z,0.65
2022-12-31T21:38:02.110Z,0.55
2022-12-31T21:40:29.871Z,0.45
2022-12-31T21:42:57.951Z,0.45
2022-12-31T21:45:25.364Z,0.32
2022-12-31T21:48:11.225Z,0.25
2022-12-31T21:50:38.580Z,0.13
2022-12-31T21:53:05.916Z,0.47
2022-12-31T21:55:51.301Z,0.10
2022-12-31T21:58:27.354Z,0.10
2022-12-31T22:01:14.497Z,0.17
2022-12-31T22:03:42.240Z,0.90
2022-12-31T22:07:24.978Z,0.68
2022-12-31T22:09:52.570Z,0.28
2022-12-31T22:12:19.751Z,0.43
2022-12-31T22:15:15.824Z,0.20
2022-12-31T22:17:34.197Z,0.63
2022-12-31T22:20:26.535Z,0.40
2022-12-31T22:22:51.025Z,0.30
2022-12-31T22:25:20.839Z,0.40
2022-12-31T22:28:27.628Z,0.22
2022-12-31T22:30:39.101Z,0.45
2022-12-31T22:33:06.617Z,0.20
2022-12-31T22:35:34.109Z,0.30
2022-12-31T22:38:09.867Z,0.10
2022-12-31T22:40:41.326Z,0.20
2022-12-31T22:43:11.680Z,0.25
2022-12-31T22:45:38.760Z,0.17
2022-12-31T22:48:06.009Z,0.20
2022-12-31T22:50:33.021Z,0.10
2022-12-31T22:53:02.852Z,0.10
2022-12-31T22:55:30.445Z,0.20
2022-12-31T22:57:58.602Z,0.30
2022-12-31T23:00:44.010Z,0.08
2022-12-31T23:03:12.473Z,0.25
2022-12-31T23:05:39.960Z,0.22
2022-12-31T23:08:18.646Z,0.10
2022-12-31T23:11:00.316Z,0.20
2022-12-31T23:13:50.830Z,0.10
2022-12-31T23:16:37.872Z,0.20
2022-12-31T23:19:25.430Z,0.65
2022-12-31T23:22:11.130Z,0.15
2022-12-31T23:24:38.649Z,0.00
2022-12-31T23:27:06.979Z,0.25
2022-12-31T23:29:34.272Z,0.10
2022-12-31T23:32:01.571Z,0.17
2022-12-31T23:34:28.775Z,0.20
2022-12-31T23:36:55.934Z,0.22
2022-12-31T23:39:22.971Z,0.20
2022-12-31T23:41:49.887Z,0.10
2022-12-31T23:44:17.283Z,0.08
2022-12-31T23:46:45.132Z,0.08
2022-12-31T23:49:12.584Z,0.10
2022-12-31T23:51:40.867Z,0.10
2022-12-31T23:54:14.274Z,0.40
2022-12-31T23:56:44.735Z,0.22
2022-12-31T23:59:23.871Z,0.08
